Kiroli Woods, Louisiana
Current Conditions -  °F | °C
As of 3:53 AM on Sunday 25 Jan 2015 (Local Time) from KMLU Reporting Station
Clear Clear  
Wind Chill: 32°   Ceiling: Unl
Heat Index: 37°   Visibility: 10mi
Dew Point: 35°   Wind: 6mph
Humidity: 93%   Direction: 210°SSW
Pressure: 29.97"   Gusts: NA
Location:  32.5473°N, 92.2007°W
Report Text: KMLU 250953Z AUTO 21005KT 10SM CLR 03/02 A2997 RMK AO2 SLP149 T00280017 $
Loading
Personal Weather Stations






























Interactive Weather Map New forecast layout! Learn more

10-Day Weather Forecast

Advertisements
Track Severe Weather on mobile